sensor_id;sensor_type;location;lat;lon;timestamp;temperature;humidity
26479;DHT22;14163;-26.142;27.992;2022-12-07T01:38:38;14.50;99.90
26479;DHT22;14163;-26.142;27.992;2022-12-07T01:41:08;14.70;99.90
26479;DHT22;14163;-26.142;27.992;2022-12-07T01:44:06;15.30;99.90
26479;DHT22;14163;-26.142;27.992;2022-12-07T01:46:31;15.80;99.90
26479;DHT22;14163;-26.142;27.992;2022-12-07T01:49:00;16.50;99.90
26479;DHT22;14163;-26.142;27.992;2022-12-07T01:51:30;16.90;99.90
26479;DHT22;14163;-26.142;27.992;2022-12-07T01:54:01;17.10;99.90
26479;DHT22;14163;-26.142;27.992;2022-12-07T01:56:31;17.60;99.90
26479;DHT22;14163;-26.142;27.992;2022-12-07T01:59:01;17.80;99.90
26479;DHT22;14163;-26.142;27.992;2022-12-07T02:01:31;17.90;99.90
26479;DHT22;14163;-26.142;27.992;2022-12-07T02:04:00;18.00;99.90
26479;DHT22;14163;-26.142;27.992;2022-12-07T02:06:29;18.20;99.90
26479;DHT22;14163;-26.142;27.992;2022-12-07T02:09:00;18.30;99.90
26479;DHT22;14163;-26.142;27.992;2022-12-07T02:11:29;18.40;99.90
26479;DHT22;14163;-26.142;27.992;2022-12-07T02:13:59;18.40;99.90
26479;DHT22;14163;-26.142;27.992;2022-12-07T02:16:34;18.40;99.90
26479;DHT22;14163;-26.142;27.992;2022-12-07T02:19:24;18.50;99.90
26479;DHT22;14163;-26.142;27.992;2022-12-07T02:22:11;18.50;99.90
26479;DHT22;14163;-26.142;27.992;2022-12-07T02:24:53;18.60;99.90
26479;DHT22;14163;-26.142;27.992;2022-12-07T02:27:36;18.80;99.90
26479;DHT22;14163;-26.142;27.992;2022-12-07T02:30:10;18.80;99.90
26479;DHT22;14163;-26.142;27.992;2022-12-07T02:32:48;18.70;99.90
26479;DHT22;14163;-26.142;27.992;2022-12-07T02:35:20;18.60;99.90
26479;DHT22;14163;-26.142;27.992;2022-12-07T02:37:58;18.60;99.90
26479;DHT22;14163;-26.142;27.992;2022-12-07T02:40:31;18.50;99.90
26479;DHT22;14163;-26.142;27.992;2022-12-07T02:44:51;18.20;99.90
26479;DHT22;14163;-26.142;27.992;2022-12-07T02:47:22;18.30;99.90
26479;DHT22;14163;-26.142;27.992;2022-12-07T02:49:54;18.10;99.90
26479;DHT22;14163;-26.142;27.992;2022-12-07T02:52:24;18.10;99.90
26479;DHT22;14163;-26.142;27.992;2022-12-07T02:54:53;18.00;99.90
26479;DHT22;14163;-26.142;27.992;2022-12-07T02:57:36;17.90;99.90
26479;DHT22;14163;-26.142;27.992;2022-12-07T03:00:15;18.00;99.90
26479;DHT22;14163;-26.142;27.992;2022-12-07T03:02:53;17.80;99.90
26479;DHT22;14163;-26.142;27.992;2022-12-07T03:05:52;17.70;99.90
26479;DHT22;14163;-26.142;27.992;2022-12-07T03:08:29;17.50;99.90
26479;DHT22;14163;-26.142;27.992;2022-12-07T03:11:02;17.40;99.90
26479;DHT22;14163;-26.142;27.992;2022-12-07T03:13:37;17.60;99.90
26479;DHT22;14163;-26.142;27.992;2022-12-07T03:16:14;17.60;99.90
26479;DHT22;14163;-26.142;27.992;2022-12-07T03:18:46;17.70;99.90
26479;DHT22;14163;-26.142;27.992;2022-12-07T03:21:18;17.60;99.90
26479;DHT22;14163;-26.142;27.992;2022-12-07T03:23:52;17.50;99.90
26479;DHT22;14163;-26.142;27.992;2022-12-07T03:26:30;17.50;99.90
26479;DHT22;14163;-26.142;27.992;2022-12-07T03:29:04;17.50;99.90
26479;DHT22;14163;-26.142;27.992;2022-12-07T03:31:40;17.50;99.90
26479;DHT22;14163;-26.142;27.992;2022-12-07T03:34:14;17.50;99.90
26479;DHT22;14163;-26.142;27.992;2022-12-07T03:36:48;17.50;99.90
26479;DHT22;14163;-26.142;27.992;2022-12-07T03:39:24;17.70;99.90
26479;DHT22;14163;-26.142;27.992;2022-12-07T03:41:55;17.70;99.90
26479;DHT22;14163;-26.142;27.992;2022-12-07T03:44:24;17.80;99.90
26479;DHT22;14163;-26.142;27.992;2022-12-07T03:47:01;17.80;99.90
26479;DHT22;14163;-26.142;27.992;2022-12-07T03:49:37;17.80;99.90
26479;DHT22;14163;-26.142;27.992;2022-12-07T03:52:13;17.90;99.90
26479;DHT22;14163;-26.142;27.992;2022-12-07T03:54:49;17.90;99.90
26479;DHT22;14163;-26.142;27.992;2022-12-07T03:57:21;17.70;99.90
26479;DHT22;14163;-26.142;27.992;2022-12-07T03:59:53;17.30;99.90
26479;DHT22;14163;-26.142;27.992;2022-12-07T04:02:26;17.20;99.90
26479;DHT22;14163;-26.142;27.992;2022-12-07T04:04:55;17.10;99.90
26479;DHT22;14163;-26.142;27.992;2022-12-07T04:07:25;17.10;99.90
26479;DHT22;14163;-26.142;27.992;2022-12-07T04:09:54;17.10;99.90
26479;DHT22;14163;-26.142;27.992;2022-12-07T04:12:23;17.20;99.90
26479;DHT22;14163;-26.142;27.992;2022-12-07T04:14:52;17.20;99.90
26479;DHT22;14163;-26.142;27.992;2022-12-07T04:17:23;17.10;99.90
26479;DHT22;14163;-26.142;27.992;2022-12-07T04:19:52;17.30;99.90
26479;DHT22;14163;-26.142;27.992;2022-12-07T04:22:22;17.10;99.90
26479;DHT22;14163;-26.142;27.992;2022-12-07T04:24:51;17.10;99.90
26479;DHT22;14163;-26.142;27.992;2022-12-07T04:27:20;17.20;99.90
26479;DHT22;14163;-26.142;27.992;2022-12-07T04:29:49;17.40;99.90
26479;DHT22;14163;-26.142;27.992;2022-12-07T04:32:18;17.20;99.90
26479;DHT22;14163;-26.142;27.992;2022-12-07T04:34:49;17.20;99.90
26479;DHT22;14163;-26.142;27.992;2022-12-07T04:37:18;17.10;99.90
26479;DHT22;14163;-26.142;27.992;2022-12-07T04:39:47;16.80;99.90
26479;DHT22;14163;-26.142;27.992;2022-12-07T04:42:16;17.10;99.90
26479;DHT22;14163;-26.142;27.992;2022-12-07T04:44:46;17.20;99.90
26479;DHT22;14163;-26.142;27.992;2022-12-07T04:47:16;17.20;99.90
26479;DHT22;14163;-26.142;27.992;2022-12-07T04:49:45;17.10;99.90
26479;DHT22;14163;-26.142;27.992;2022-12-07T04:52:16;16.90;99.90
26479;DHT22;14163;-26.142;27.992;2022-12-07T04:54:45;17.20;99.90
26479;DHT22;14163;-26.142;27.992;2022-12-07T04:57:14;17.30;99.90
26479;DHT22;14163;-26.142;27.992;2022-12-07T04:59:43;17.40;99.90
26479;DHT22;14163;-26.142;27.992;2022-12-07T05:02:12;17.40;99.90
26479;DHT22;14163;-26.142;27.992;2022-12-07T05:04:41;17.60;99.90
26479;DHT22;14163;-26.142;27.992;2022-12-07T05:07:10;17.40;99.90
26479;DHT22;14163;-26.142;27.992;2022-12-07T05:09:41;17.50;99.90
26479;DHT22;14163;-26.142;27.992;2022-12-07T05:12:10;17.40;99.90
26479;DHT22;14163;-26.142;27.992;2022-12-07T05:14:39;17.50;99.90
26479;DHT22;14163;-26.142;27.992;2022-12-07T05:17:08;17.50;99.90
26479;DHT22;14163;-26.142;27.992;2022-12-07T05:19:38;17.50;99.90
26479;DHT22;14163;-26.142;27.992;2022-12-07T05:22:07;17.60;99.90
26479;DHT22;14163;-26.142;27.992;2022-12-07T05:24:36;18.00;99.90
26479;DHT22;14163;-26.142;27.992;2022-12-07T05:27:07;17.80;99.90
26479;DHT22;14163;-26.142;27.992;2022-12-07T05:29:36;17.90;99.90
26479;DHT22;14163;-26.142;27.992;2022-12-07T05:32:05;18.20;99.90
26479;DHT22;14163;-26.142;27.992;2022-12-07T05:34:34;17.90;99.90
26479;DHT22;14163;-26.142;27.992;2022-12-07T05:37:03;17.90;99.90
26479;DHT22;14163;-26.142;27.992;2022-12-07T05:39:32;17.80;99.90
26479;DHT22;14163;-26.142;27.992;2022-12-07T05:42:02;17.60;99.90
26479;DHT22;14163;-26.142;27.992;2022-12-07T05:44:46;17.60;99.90
26479;DHT22;14163;-26.142;27.992;2022-12-07T05:47:16;17.50;99.90
26479;DHT22;14163;-26.142;27.992;2022-12-07T05:49:45;17.60;99.90
26479;DHT22;14163;-26.142;27.992;2022-12-07T05:52:14;17.90;99.90
26479;DHT22;14163;-26.142;27.992;2022-12-07T05:54:43;18.00;99.90
26479;DHT22;14163;-26.142;27.992;2022-12-07T05:57:12;17.90;99.90
26479;DHT22;14163;-26.142;27.992;2022-12-07T05:59:41;17.60;99.90
26479;DHT22;14163;-26.142;27.992;2022-12-07T08:10:29;21.10;99.90
26479;DHT22;14163;-26.142;27.992;2022-12-07T08:12:59;18.80;99.90
26479;DHT22;14163;-26.142;27.992;2022-12-07T08:15:41;19.30;99.90
26479;DHT22;14163;-26.142;27.992;2022-12-07T08:18:11;20.10;99.90
26479;DHT22;14163;-26.142;27.992;2022-12-07T08:20:41;20.80;99.90
26479;DHT22;14163;-26.142;27.992;2022-12-07T08:23:11;21.20;99.90
26479;DHT22;14163;-26.142;27.992;2022-12-07T08:25:41;21.50;99.90
26479;DHT22;14163;-26.142;27.992;2022-12-07T08:28:11;21.90;99.90
26479;DHT22;14163;-26.142;27.992;2022-12-07T08:30:40;22.00;99.90
26479;DHT22;14163;-26.142;27.992;2022-12-07T08:33:10;21.70;99.90
26479;DHT22;14163;-26.142;27.992;2022-12-07T08:35:39;21.90;99.90
26479;DHT22;14163;-26.142;27.992;2022-12-07T08:38:08;22.00;99.90
26479;DHT22;14163;-26.142;27.992;2022-12-07T08:40:37;22.00;99.90
26479;DHT22;14163;-26.142;27.992;2022-12-07T08:43:08;22.40;99.90
26479;DHT22;14163;-26.142;27.992;2022-12-07T08:45:40;22.70;99.90
26479;DHT22;14163;-26.142;27.992;2022-12-07T08:48:12;22.80;99.90
26479;DHT22;14163;-26.142;27.992;2022-12-07T08:50:44;22.70;99.90
26479;DHT22;14163;-26.142;27.992;2022-12-07T08:53:14;22.70;99.90
26479;DHT22;14163;-26.142;27.992;2022-12-07T08:55:44;22.70;99.90
26479;DHT22;14163;-26.142;27.992;2022-12-07T08:58:15;22.50;99.90
26479;DHT22;14163;-26.142;27.992;2022-12-07T09:00:44;22.40;99.90
26479;DHT22;14163;-26.142;27.992;2022-12-07T09:03:14;22.30;99.90
26479;DHT22;14163;-26.142;27.992;2022-12-07T09:05:43;22.60;99.90
26479;DHT22;14163;-26.142;27.992;2022-12-07T09:08:12;22.80;99.90
26479;DHT22;14163;-26.142;27.992;2022-12-07T09:10:41;23.10;99.90
26479;DHT22;14163;-26.142;27.992;2022-12-07T09:13:10;23.30;99.90
26479;DHT22;14163;-26.142;27.992;2022-12-07T09:15:41;23.20;99.90
26479;DHT22;14163;-26.142;27.992;2022-12-07T09:18:10;23.10;99.90
26479;DHT22;14163;-26.142;27.992;2022-12-07T09:20:39;23.10;99.90
26479;DHT22;14163;-26.142;27.992;2022-12-07T09:23:08;23.10;99.90
26479;DHT22;14163;-26.142;27.992;2022-12-07T09:25:38;23.20;99.90
26479;DHT22;14163;-26.142;27.992;2022-12-07T09:28:07;23.30;99.90
26479;DHT22;14163;-26.142;27.992;2022-12-07T09:30:36;23.40;99.90
26479;DHT22;14163;-26.142;27.992;2022-12-07T09:33:07;23.50;99.90
26479;DHT22;14163;-26.142;27.992;2022-12-07T09:35:36;23.50;99.90
26479;DHT22;14163;-26.142;27.992;2022-12-07T09:38:05;23.40;99.90
26479;DHT22;14163;-26.142;27.992;2022-12-07T09:40:34;23.10;99.90
26479;DHT22;14163;-26.142;27.992;2022-12-07T09:43:03;23.00;99.90
26479;DHT22;14163;-26.142;27.992;2022-12-07T09:45:35;23.10;99.90
26479;DHT22;14163;-26.142;27.992;2022-12-07T09:48:08;23.20;99.90
26479;DHT22;14163;-26.142;27.992;2022-12-07T09:50:41;23.30;99.90
26479;DHT22;14163;-26.142;27.992;2022-12-07T09:53:14;23.40;99.90
26479;DHT22;14163;-26.142;27.992;2022-12-07T09:55:44;23.40;99.90
26479;DHT22;14163;-26.142;27.992;2022-12-07T09:58:19;23.50;99.90
26479;DHT22;14163;-26.142;27.992;2022-12-07T10:00:49;23.40;99.90
26479;DHT22;14163;-26.142;27.992;2022-12-07T10:03:21;23.40;99.90
26479;DHT22;14163;-26.142;27.992;2022-12-07T10:05:51;23.40;99.90
26479;DHT22;14163;-26.142;27.992;2022-12-07T10:08:21;23.40;99.90
26479;DHT22;14163;-26.142;27.992;2022-12-07T10:10:52;23.50;99.90
26479;DHT22;14163;-26.142;27.992;2022-12-07T10:13:33;23.70;99.90
26479;DHT22;14163;-26.142;27.992;2022-12-07T10:16:03;23.80;99.90
26479;DHT22;14163;-26.142;27.992;2022-12-07T10:18:35;23.70;99.90
26479;DHT22;14163;-26.142;27.992;2022-12-07T10:21:12;23.90;99.90
26479;DHT22;14163;-26.142;27.992;2022-12-07T10:24:02;24.00;99.90
26479;DHT22;14163;-26.142;27.992;2022-12-07T10:26:33;24.00;99.90
26479;DHT22;14163;-26.142;27.992;2022-12-07T10:29:15;24.10;99.90
26479;DHT22;14163;-26.142;27.992;2022-12-07T10:31:45;24.20;99.90
26479;DHT22;14163;-26.142;27.992;2022-12-07T10:34:23;24.30;99.90
26479;DHT22;14163;-26.142;27.992;2022-12-07T10:36:53;24.40;99.90
26479;DHT22;14163;-26.142;27.992;2022-12-07T10:39:23;24.40;99.90
26479;DHT22;14163;-26.142;27.992;2022-12-07T10:41:56;24.40;99.90
26479;DHT22;14163;-26.142;27.992;2022-12-07T10:44:27;24.40;99.90
26479;DHT22;14163;-26.142;27.992;2022-12-07T10:47:14;24.50;99.90
26479;DHT22;14163;-26.142;27.992;2022-12-07T10:50:17;24.70;99.90
26479;DHT22;14163;-26.142;27.992;2022-12-07T10:53:00;24.80;99.90
26479;DHT22;14163;-26.142;27.992;2022-12-07T10:55:40;24.90;99.90
26479;DHT22;14163;-26.142;27.992;2022-12-07T10:58:29;24.90;99.90
26479;DHT22;14163;-26.142;27.992;2022-12-07T11:01:09;25.00;99.90
26479;DHT22;14163;-26.142;27.992;2022-12-07T11:03:54;25.10;99.90
26479;DHT22;14163;-26.142;27.992;2022-12-07T11:06:33;25.20;99.90
26479;DHT22;14163;-26.142;27.992;2022-12-07T11:09:24;25.20;99.90
26479;DHT22;14163;-26.142;27.992;2022-12-07T11:12:02;25.20;99.90
26479;DHT22;14163;-26.142;27.992;2022-12-07T11:14:39;25.40;99.90
26479;DHT22;14163;-26.142;27.992;2022-12-07T11:17:16;25.40;99.90
26479;DHT22;14163;-26.142;27.992;2022-12-07T11:19:58;25.30;99.90
26479;DHT22;14163;-26.142;27.992;2022-12-07T11:22:39;25.50;99.90
26479;DHT22;14163;-26.142;27.992;2022-12-07T11:25:20;25.70;99.90
26479;DHT22;14163;-26.142;27.992;2022-12-07T11:28:09;25.70;99.90
26479;DHT22;14163;-26.142;27.992;2022-12-07T11:30:49;25.50;99.90
26479;DHT22;14163;-26.142;27.992;2022-12-07T11:33:29;25.20;99.90
26479;DHT22;14163;-26.142;27.992;2022-12-07T11:36:08;24.90;99.90
26479;DHT22;14163;-26.142;27.992;2022-12-07T11:38:45;24.70;99.90
26479;DHT22;14163;-26.142;27.992;2022-12-07T11:41:19;24.50;99.90
26479;DHT22;14163;-26.142;27.992;2022-12-07T11:43:55;24.50;99.90
26479;DHT22;14163;-26.142;27.992;2022-12-07T11:46:28;24.50;99.90
26479;DHT22;14163;-26.142;27.992;2022-12-07T11:49:02;24.60;99.90
26479;DHT22;14163;-26.142;27.992;2022-12-07T11:51:36;24.60;99.90
26479;DHT22;14163;-26.142;27.992;2022-12-07T11:54:14;24.60;99.90
26479;DHT22;14163;-26.142;27.992;2022-12-07T11:56:48;24.80;99.90
26479;DHT22;14163;-26.142;27.992;2022-12-07T11:59:22;24.80;99.90
26479;DHT22;14163;-26.142;27.992;2022-12-07T12:01:56;24.60;99.90
26479;DHT22;14163;-26.142;27.992;2022-12-07T12:04:47;24.40;99.90
26479;DHT22;14163;-26.142;27.992;2022-12-07T12:07:22;24.40;99.90
26479;DHT22;14163;-26.142;27.992;2022-12-07T12:09:56;24.40;99.90
26479;DHT22;14163;-26.142;27.992;2022-12-07T12:15:40;24.70;99.90
26479;DHT22;14163;-26.142;27.992;2022-12-07T12:18:38;24.80;99.90
26479;DHT22;14163;-26.142;27.992;2022-12-07T12:21:11;24.80;99.90
26479;DHT22;14163;-26.142;27.992;2022-12-07T12:23:44;24.80;99.90
26479;DHT22;14163;-26.142;27.992;2022-12-07T12:26:20;24.80;99.90
26479;DHT22;14163;-26.142;27.992;2022-12-07T12:28:53;25.00;99.90
26479;DHT22;14163;-26.142;27.992;2022-12-07T12:31:35;25.10;99.90
26479;DHT22;14163;-26.142;27.992;2022-12-07T12:34:33;24.90;99.90
26479;DHT22;14163;-26.142;27.992;2022-12-07T12:37:41;24.80;99.90
26479;DHT22;14163;-26.142;27.992;2022-12-07T12:40:39;24.70;99.90
26479;DHT22;14163;-26.142;27.992;2022-12-07T12:49:54;24.30;99.90
26479;DHT22;14163;-26.142;27.992;2022-12-07T12:52:59;24.10;99.90
26479;DHT22;14163;-26.142;27.992;2022-12-07T12:55:53;23.90;99.90
26479;DHT22;14163;-26.142;27.992;2022-12-07T12:58:33;23.90;99.90
26479;DHT22;14163;-26.142;27.992;2022-12-07T13:10:42;24.00;99.90
26479;DHT22;14163;-26.142;27.992;2022-12-07T13:13:33;24.00;99.90
26479;DHT22;14163;-26.142;27.992;2022-12-07T13:16:38;23.90;99.90
26479;DHT22;14163;-26.142;27.992;2022-12-07T13:25:12;23.00;99.90
26479;DHT22;14163;-26.142;27.992;2022-12-07T13:27:51;22.70;99.90
26479;DHT22;14163;-26.142;27.992;2022-12-07T13:30:23;22.50;99.90
26479;DHT22;14163;-26.142;27.992;2022-12-07T13:32:53;22.40;99.90
26479;DHT22;14163;-26.142;27.992;2022-12-07T13:35:31;22.10;99.90
26479;DHT22;14163;-26.142;27.992;2022-12-07T13:38:05;21.90;99.90
26479;DHT22;14163;-26.142;27.992;2022-12-07T13:40:36;21.70;99.90
26479;DHT22;14163;-26.142;27.992;2022-12-07T13:43:14;21.70;99.90
26479;DHT22;14163;-26.142;27.992;2022-12-07T13:45:43;21.70;99.90
26479;DHT22;14163;-26.142;27.992;2022-12-07T13:48:21;21.90;99.90
26479;DHT22;14163;-26.142;27.992;2022-12-07T13:50:54;22.10;99.90
26479;DHT22;14163;-26.142;27.992;2022-12-07T13:53:23;22.10;99.90
26479;DHT22;14163;-26.142;27.992;2022-12-07T13:55:56;22.20;99.90
26479;DHT22;14163;-26.142;27.992;2022-12-07T13:58:27;22.10;99.90
26479;DHT22;14163;-26.142;27.992;2022-12-07T14:00:59;22.10;99.90
26479;DHT22;14163;-26.142;27.992;2022-12-07T17:13:18;19.50;99.90
26479;DHT22;14163;-26.142;27.992;2022-12-07T17:16:05;19.60;99.90
26479;DHT22;14163;-26.142;27.992;2022-12-07T17:18:36;20.30;99.90
26479;DHT22;14163;-26.142;27.992;2022-12-07T17:21:06;21.10;99.90
26479;DHT22;14163;-26.142;27.992;2022-12-07T17:23:36;21.80;99.90
26479;DHT22;14163;-26.142;27.992;2022-12-07T17:26:06;22.30;99.90
26479;DHT22;14163;-26.142;27.992;2022-12-07T17:28:38;22.70;99.90
26479;DHT22;14163;-26.142;27.992;2022-12-07T17:31:08;23.10;99.90
26479;DHT22;14163;-26.142;27.992;2022-12-07T17:33:38;23.30;99.90
26479;DHT22;14163;-26.142;27.992;2022-12-07T17:36:11;23.40;99.90
26479;DHT22;14163;-26.142;27.992;2022-12-07T17:38:40;23.50;99.90
26479;DHT22;14163;-26.142;27.992;2022-12-07T17:41:11;23.60;99.90
26479;DHT22;14163;-26.142;27.992;2022-12-07T17:44:02;23.60;99.90
26479;DHT22;14163;-26.142;27.992;2022-12-07T17:46:32;23.70;99.90
26479;DHT22;14163;-26.142;27.992;2022-12-07T17:49:02;23.70;99.90
26479;DHT22;14163;-26.142;27.992;2022-12-07T17:51:31;23.60;99.90
26479;DHT22;14163;-26.142;27.992;2022-12-07T17:54:17;23.50;99.90
26479;DHT22;14163;-26.142;27.992;2022-12-07T17:56:46;23.50;99.90
26479;DHT22;14163;-26.142;27.992;2022-12-07T17:59:17;23.40;99.90
26479;DHT22;14163;-26.142;27.992;2022-12-07T18:01:46;23.40;99.90
26479;DHT22;14163;-26.142;27.992;2022-12-07T18:04:16;23.40;99.90
26479;DHT22;14163;-26.142;27.992;2022-12-07T18:06:45;23.30;99.90
26479;DHT22;14163;-26.142;27.992;2022-12-07T18:09:14;23.30;99.90
26479;DHT22;14163;-26.142;27.992;2022-12-07T18:13:23;23.00;99.90
26479;DHT22;14163;-26.142;27.992;2022-12-07T18:16:05;22.70;99.90
26479;DHT22;14163;-26.142;27.992;2022-12-07T18:18:35;22.50;99.90
26479;DHT22;14163;-26.142;27.992;2022-12-07T18:21:06;22.50;99.90
26479;DHT22;14163;-26.142;27.992;2022-12-07T18:23:35;22.50;99.90
26479;DHT22;14163;-26.142;27.992;2022-12-07T18:26:04;22.50;99.90
26479;DHT22;14163;-26.142;27.992;2022-12-07T18:28:35;22.60;99.90
26479;DHT22;14163;-26.142;27.992;2022-12-07T18:31:04;22.60;99.90
26479;DHT22;14163;-26.142;27.992;2022-12-07T18:33:33;22.50;99.90
26479;DHT22;14163;-26.142;27.992;2022-12-07T18:36:03;22.50;99.90
26479;DHT22;14163;-26.142;27.992;2022-12-07T18:38:33;22.30;99.90
26479;DHT22;14163;-26.142;27.992;2022-12-07T18:41:05;22.10;99.90
26479;DHT22;14163;-26.142;27.992;2022-12-07T18:43:36;22.10;99.90
26479;DHT22;14163;-26.142;27.992;2022-12-07T18:46:09;22.10;99.90
26479;DHT22;14163;-26.142;27.992;2022-12-07T18:48:39;22.00;99.90
26479;DHT22;14163;-26.142;27.992;2022-12-07T18:51:10;23.70;99.90
26479;DHT22;14163;-26.142;27.992;2022-12-07T18:53:39;22.10;99.90
26479;DHT22;14163;-26.142;27.992;2022-12-07T18:56:12;22.10;99.90
26479;DHT22;14163;-26.142;27.992;2022-12-07T18:58:43;22.10;99.90
26479;DHT22;14163;-26.142;27.992;2022-12-07T19:01:25;22.10;99.90
26479;DHT22;14163;-26.142;27.992;2022-12-07T19:03:55;22.00;99.90
26479;DHT22;14163;-26.142;27.992;2022-12-07T19:06:25;21.90;99.90
26479;DHT22;14163;-26.142;27.992;2022-12-07T19:08:54;21.70;99.90
26479;DHT22;14163;-26.142;27.992;2022-12-07T19:11:25;21.60;99.90
26479;DHT22;14163;-26.142;27.992;2022-12-07T19:14:15;21.60;99.90
26479;DHT22;14163;-26.142;27.992;2022-12-07T19:16:44;21.60;99.90
26479;DHT22;14163;-26.142;27.992;2022-12-07T19:19:16;21.70;99.90
26479;DHT22;14163;-26.142;27.992;2022-12-07T19:21:45;21.80;99.90
26479;DHT22;14163;-26.142;27.992;2022-12-07T19:24:15;21.90;99.90
26479;DHT22;14163;-26.142;27.992;2022-12-07T19:26:44;21.90;99.90
26479;DHT22;14163;-26.142;27.992;2022-12-07T19:29:15;21.70;99.90
26479;DHT22;14163;-26.142;27.992;2022-12-07T19:31:44;21.60;99.90
26479;DHT22;14163;-26.142;27.992;2022-12-07T19:34:15;21.50;99.90
26479;DHT22;14163;-26.142;27.992;2022-12-07T19:36:45;21.50;99.90
26479;DHT22;14163;-26.142;27.992;2022-12-07T19:39:14;21.40;99.90
26479;DHT22;14163;-26.142;27.992;2022-12-07T19:41:44;21.30;99.90
26479;DHT22;14163;-26.142;27.992;2022-12-07T19:44:16;21.30;99.90
26479;DHT22;14163;-26.142;27.992;2022-12-07T19:46:46;21.20;99.90
26479;DHT22;14163;-26.142;27.992;2022-12-07T19:49:17;21.10;99.90
26479;DHT22;14163;-26.142;27.992;2022-12-07T19:51:47;21.10;99.90
26479;DHT22;14163;-26.142;27.992;2022-12-07T19:54:18;21.20;99.90
26479;DHT22;14163;-26.142;27.992;2022-12-07T19:56:48;21.10;99.90
26479;DHT22;14163;-26.142;27.992;2022-12-07T19:59:20;21.10;99.90
26479;DHT22;14163;-26.142;27.992;2022-12-07T20:01:50;21.10;99.90
26479;DHT22;14163;-26.142;27.992;2022-12-07T20:04:21;21.10;99.90
26479;DHT22;14163;-26.142;27.992;2022-12-07T20:06:52;21.00;99.90
26479;DHT22;14163;-26.142;27.992;2022-12-07T20:09:21;21.10;99.90
26479;DHT22;14163;-26.142;27.992;2022-12-07T20:11:51;21.10;99.90
26479;DHT22;14163;-26.142;27.992;2022-12-07T20:14:39;21.10;99.90
26479;DHT22;14163;-26.142;27.992;2022-12-07T20:17:08;21.10;99.90
26479;DHT22;14163;-26.142;27.992;2022-12-07T20:19:37;21.20;99.90
26479;DHT22;14163;-26.142;27.992;2022-12-07T20:22:06;21.40;99.90
26479;DHT22;14163;-26.142;27.992;2022-12-07T20:24:36;21.50;99.90
26479;DHT22;14163;-26.142;27.992;2022-12-07T20:27:05;21.60;99.90
26479;DHT22;14163;-26.142;27.992;2022-12-07T20:29:34;21.70;99.90
26479;DHT22;14163;-26.142;27.992;2022-12-07T20:32:05;21.70;99.90
26479;DHT22;14163;-26.142;27.992;2022-12-07T20:34:34;21.80;99.90
26479;DHT22;14163;-26.142;27.992;2022-12-07T20:37:03;21.90;99.90
26479;DHT22;14163;-26.142;27.992;2022-12-07T20:39:32;21.90;99.90
26479;DHT22;14163;-26.142;27.992;2022-12-07T20:42:01;21.90;99.90
26479;DHT22;14163;-26.142;27.992;2022-12-07T20:44:47;21.70;99.90
26479;DHT22;14163;-26.142;27.992;2022-12-07T20:47:18;21.60;99.90
26479;DHT22;14163;-26.142;27.992;2022-12-07T20:49:47;21.50;99.90
26479;DHT22;14163;-26.142;27.992;2022-12-07T20:52:16;21.40;99.90
26479;DHT22;14163;-26.142;27.992;2022-12-07T20:54:46;21.40;99.90
26479;DHT22;14163;-26.142;27.992;2022-12-07T20:57:15;21.40;99.90
26479;DHT22;14163;-26.142;27.992;2022-12-07T20:59:44;21.50;99.90
26479;DHT22;14163;-26.142;27.992;2022-12-07T21:02:13;21.70;99.90
26479;DHT22;14163;-26.142;27.992;2022-12-07T21:04:44;21.80;99.90
26479;DHT22;14163;-26.142;27.992;2022-12-07T21:07:13;21.80;99.90
26479;DHT22;14163;-26.142;27.992;2022-12-07T21:09:44;21.80;99.90
26479;DHT22;14163;-26.142;27.992;2022-12-07T21:12:13;21.80;99.90
26479;DHT22;14163;-26.142;27.992;2022-12-07T21:14:42;21.80;99.90
26479;DHT22;14163;-26.142;27.992;2022-12-07T21:17:11;21.90;99.90
26479;DHT22;14163;-26.142;27.992;2022-12-07T21:19:40;21.90;99.90
26479;DHT22;14163;-26.142;27.992;2022-12-07T21:22:11;21.90;99.90
26479;DHT22;14163;-26.142;27.992;2022-12-07T21:24:40;21.90;99.90
26479;DHT22;14163;-26.142;27.992;2022-12-07T21:27:09;22.00;99.90
26479;DHT22;14163;-26.142;27.992;2022-12-07T21:29:38;22.00;99.90
26479;DHT22;14163;-26.142;27.992;2022-12-07T21:32:08;22.10;99.90
26479;DHT22;14163;-26.142;27.992;2022-12-07T21:34:37;22.10;99.90
26479;DHT22;14163;-26.142;27.992;2022-12-07T21:37:06;22.10;99.90
26479;DHT22;14163;-26.142;27.992;2022-12-07T21:39:36;22.10;99.90
26479;DHT22;14163;-26.142;27.992;2022-12-07T21:42:06;22.00;99.90
26479;DHT22;14163;-26.142;27.992;2022-12-07T21:44:35;22.00;99.90
26479;DHT22;14163;-26.142;27.992;2022-12-07T21:47:04;22.00;99.90
26479;DHT22;14163;-26.142;27.992;2022-12-07T21:49:33;21.90;99.90
26479;DHT22;14163;-26.142;27.992;2022-12-07T21:52:03;21.90;99.90
26479;DHT22;14163;-26.142;27.992;2022-12-07T21:54:32;22.00;99.90
26479;DHT22;14163;-26.142;27.992;2022-12-07T21:57:03;21.90;99.90
26479;DHT22;14163;-26.142;27.992;2022-12-07T21:59:32;21.90;99.90
